Newton Falls, OH (44444)

6:12 PM EDT on April 25, 2017 (GMT -0400)
KOHNEWTO1 | | Change Station

Elev 932 ft 41.20 °N, 80.97 °W | Updated 20 seconds ago

Overcast
Overcast
68.0 °F
Feels Like 68.0 °F
N
2.5
Wind Variable Wind from SE
Gusts 4.6 mph

Today
High -- | Low -- °F
--% Chance of Precip.
Yesterday
High -- | Low -- °F
Precip. -- in
Pressure 29.80 in
Visibility 10.0 miles
Clouds Scattered Clouds 3300 ft
Overcast 6000 ft
Dew Point 55 °F
Humidity 64%
Rainfall 0.09 in
Snow Depth Not available.
6:29 AM 8:14 PM
Waning Crescent, 1% visible
METAR KPOV 252200Z AUTO 12008KT 10SM SCT033 OVC060 19/11 A2980 RMK AO2 T01860111
Pressure 29.80 in
Visibility 10.0 miles
Clouds Scattered Clouds 3300 ft
Overcast 6000 ft
Dew Point 55 °F
Humidity 64%
Rainfall 0.09 in
Snow Depth Not available.
6:29 AM 8:14 PM
Waning Crescent, 1% visible
METAR KPOV 252200Z AUTO 12008KT 10SM SCT033 OVC060 19/11 A2980 RMK AO2 T01860111

Get Severe Weather Alerts

Thanks for signing up!

Be on the lookout for a verification email in your inbox.

You'll start receiving the daily forecast at 8 AM.

×

10-Day Weather Forecast

Almanac

Astronomy

Apr. 25, 2017 Rise Set
Actual Time
Civil Twilight
Nautical Twilight
Astronomical Twilight
Moon
Length of Visible Light
Length of Day
Tomorrow will be .
, % of the Moon is Illuminated

Today's Extremes

State Highs State Lows

Community

WunderPhotos

WunderBlog® & News

Nearby

Air Quality

  Air Quality AQ Index Pollutant
Not available.

Snow Depth

Station Depth Elevation

Earthquake Activity

City Distance Mag. Time & Date
Minimum magnitude displayed is 2.5.

Coastal Water Temperatures

Place Temperature

Stations

Nearby Weather Stations

Station Location Temp. Windchill Dew Point Humidity Wind Precip. Elev Updated Type
                   

Watches & Warnings

There are currently no watches in effect.